Time;durP1;ratioP1;P1;durP2;ratioP2;P2;SDS_P1;SDS_P2;PMS_P1;PMS_P2;Temp;Humidity;BMP_temperature;BMP_pressure;BME280_temperature;BME280_humidity;BME280_pressure;Samples;Min_cycle;Max_cycle;Signal;HPM_P1;HPM_P2
2021/08/19 00:00:54;;;;;;;10.73;8.45;;;;;;;17.36;97.21;100237.34;5258081;28;20103;-78
2021/08/19 00:03:25;;;;;;;10.55;8.57;;;;;;;17.38;97.37;100233.66;5256418;28;20031;-78
2021/08/19 00:05:55;;;;;;;12.50;8.43;;;;;;;17.44;96.79;100229.72;5256113;28;20070;-78
2021/08/19 00:08:26;;;;;;;9.93;8.40;;;;;;;17.45;96.97;100232.28;5258099;28;20016;-78
2021/08/19 00:10:56;;;;;;;9.90;7.50;;;;;;;17.45;96.99;100236.72;5258788;28;20030;-78
2021/08/19 00:13:28;;;;;;;10.55;7.57;;;;;;;17.34;97.41;100241.91;5255138;28;20137;-78
2021/08/19 00:15:59;;;;;;;10.60;7.70;;;;;;;17.37;97.09;100226.69;5259784;28;20028;-78
2021/08/19 00:18:29;;;;;;;9.25;7.05;;;;;;;17.41;96.66;100237.88;5253783;28;20603;-78
2021/08/19 00:21:00;;;;;;;9.18;6.85;;;;;;;17.31;97.60;100234.16;5243495;28;20027;-78
2021/08/19 00:23:31;;;;;;;11.85;7.40;;;;;;;17.37;97.40;100220.53;5248802;28;20032;-78
2021/08/19 00:26:03;;;;;;;10.57;7.13;;;;;;;17.35;97.46;100238.28;5240882;28;20059;-78
2021/08/19 00:28:33;;;;;;;11.18;7.53;;;;;;;17.45;96.66;100232.28;5259059;28;20032;-79
2021/08/19 00:31:03;;;;;;;10.93;6.95;;;;;;;17.46;96.74;100238.41;5245831;28;20038;-79
2021/08/19 00:33:34;;;;;;;8.73;7.05;;;;;;;17.39;96.27;100242.41;5241549;28;20047;-79
2021/08/19 00:36:04;;;;;;;11.93;6.82;;;;;;;17.37;96.63;100239.03;5241956;28;20032;-78
2021/08/19 00:38:34;;;;;;;11.38;7.07;;;;;;;17.47;96.78;100237.47;5262483;28;20028;-79
2021/08/19 00:41:05;;;;;;;9.77;6.95;;;;;;;17.51;95.57;100231.84;5241926;28;20393;-79
2021/08/19 00:43:35;;;;;;;10.27;6.45;;;;;;;17.49;96.00;100231.09;5262570;28;20024;-79
2021/08/19 00:46:36;;;;;;;9.20;6.38;;;;;;;17.52;95.82;100224.78;5258111;28;20027;-79
2021/08/19 00:49:11;;;;;;;9.13;6.20;;;;;;;17.42;95.72;100234.28;5255860;28;20020;-77
2021/08/19 00:51:44;;;;;;;10.20;6.53;;;;;;;17.41;96.89;100228.16;5260248;28;20028;-79
2021/08/19 00:54:17;;;;;;;8.70;6.75;;;;;;;17.43;96.50;100230.69;5259834;28;20521;-79
2021/08/19 00:56:54;;;;;;;10.40;6.40;;;;;;;17.34;96.46;100228.69;5260849;28;20489;-79
2021/08/19 00:59:26;;;;;;;11.77;6.60;;;;;;;17.42;95.97;100231.63;5233492;28;20020;-78
2021/08/19 01:01:58;;;;;;;7.75;6.05;;;;;;;17.37;95.68;100228.47;5236441;28;20024;-78
2021/08/19 01:04:32;;;;;;;8.27;5.75;;;;;;;17.36;95.78;100232.06;5240451;28;20306;-79
2021/08/19 01:07:04;;;;;;;9.02;5.88;;;;;;;17.35;95.67;100233.84;5254560;28;20055;-79
2021/08/19 01:09:35;;;;;;;8.25;5.82;;;;;;;17.30;95.80;100229.81;5256778;28;20040;-79
2021/08/19 01:12:07;;;;;;;8.38;5.60;;;;;;;17.32;95.56;100233.19;5261906;28;20024;-77
2021/08/19 01:14:38;;;;;;;6.57;5.10;;;;;;;17.31;95.63;100237.63;5241560;28;20024;-79
2021/08/19 01:17:10;;;;;;;8.35;5.38;;;;;;;17.33;94.55;100230.44;5259663;28;20029;-79
2021/08/19 01:19:49;;;;;;;9.45;5.10;;;;;;;17.36;94.89;100227.63;5239409;28;20024;-79
2021/08/19 01:22:23;;;;;;;7.97;5.03;;;;;;;17.37;94.43;100228.47;5259712;28;20035;-79
2021/08/19 01:24:53;;;;;;;8.18;5.30;;;;;;;17.38;94.46;100238.09;5256009;28;20294;-79
2021/08/19 01:27:24;;;;;;;9.18;5.03;;;;;;;17.32;94.39;100233.19;5241174;28;20016;-79
2021/08/19 01:29:54;;;;;;;7.97;5.05;;;;;;;17.30;94.62;100229.81;5256055;28;20025;-79
2021/08/19 01:32:26;;;;;;;6.93;4.72;;;;;;;17.33;94.27;100230.44;5259713;28;20101;-78
2021/08/19 01:34:56;;;;;;;8.23;5.10;;;;;;;17.32;94.25;100228.75;5256033;28;20023;-78
2021/08/19 01:37:26;;;;;;;8.13;5.03;;;;;;;17.43;94.15;100230.69;5240646;28;20123;-79
2021/08/19 01:39:57;;;;;;;8.20;4.78;;;;;;;17.40;93.68;100236.19;5255956;28;20674;-78
2021/08/19 01:42:27;;;;;;;7.83;4.80;;;;;;;17.40;94.46;100228.25;5240793;28;20028;-78
2021/08/19 01:44:57;;;;;;;9.13;5.20;;;;;;;17.45;93.90;100224.34;5237607;28;20701;-79
2021/08/19 01:47:30;;;;;;;7.75;5.10;;;;;;;17.34;94.06;100229.50;5238561;28;20032;-78
2021/08/19 01:50:00;;;;;;;6.75;4.75;;;;;;;17.46;93.85;100227.84;5234186;28;20028;-78
2021/08/19 01:52:30;;;;;;;8.13;5.30;;;;;;;17.32;94.40;100225.28;5259703;28;20123;-78
2021/08/19 01:55:00;;;;;;;8.88;5.80;;;;;;;17.33;94.39;100225.16;5255119;28;20282;-78
2021/08/19 01:57:31;;;;;;;9.90;5.53;;;;;;;17.41;94.66;100233.44;5259109;28;20024;-78
2021/08/19 02:00:02;;;;;;;11.48;5.57;;;;;;;17.39;94.61;100230.06;5255521;28;20051;-79
2021/08/19 02:02:33;;;;;;;10.85;5.78;;;;;;;17.35;95.02;100225.09;5258580;28;20032;-77
2021/08/19 02:05:03;;;;;;;8.57;5.68;;;;;;;17.27;95.44;100228.22;5254757;28;20036;-77
2021/08/19 02:07:34;;;;;;;8.50;5.90;;;;;;;17.36;94.57;100230.28;5232828;28;20025;-78
2021/08/19 02:10:07;;;;;;;12.03;6.23;;;;;;;17.37;95.32;100220.53;5239284;28;20027;-79
2021/08/19 02:12:37;;;;;;;8.35;5.88;;;;;;;17.36;95.69;100221.50;5241273;28;20282;-78
2021/08/19 02:15:08;;;;;;;12.00;6.15;;;;;;;17.46;95.77;100222.56;5237898;28;20032;-78
2021/08/19 02:17:39;;;;;;;10.30;6.30;;;;;;;17.47;95.50;100217.16;5238716;28;20126;-79
2021/08/19 02:20:09;;;;;;;11.35;7.00;;;;;;;17.24;96.00;100214.38;5237248;28;20028;-79
2021/08/19 02:22:40;;;;;;;10.90;7.40;;;;;;;17.34;95.95;100220.75;5260892;28;20058;-79
2021/08/19 02:25:10;;;;;;;12.27;7.70;;;;;;;17.28;96.69;100216.69;5244003;28;20028;-79
2021/08/19 02:27:41;;;;;;;10.15;7.28;;;;;;;17.35;96.62;100211.88;5260198;28;20028;-78
2021/08/19 02:30:12;;;;;;;13.60;7.03;;;;;;;17.34;96.36;100212.84;5242543;28;20105;-78
2021/08/19 02:32:42;;;;;;;12.23;7.43;;;;;;;17.38;96.75;100214.31;5243444;28;20033;-78
2021/08/19 02:35:12;;;;;;;11.13;6.82;;;;;;;17.30;96.72;100211.31;5243366;28;20086;-81
2021/08/19 02:37:43;;;;;;;10.60;7.53;;;;;;;17.34;96.82;100205.72;5237665;28;20032;-80
2021/08/19 02:40:13;;;;;;;11.17;8.07;;;;;;;17.48;96.61;100210.09;5259116;28;20455;-79
2021/08/19 02:42:44;;;;;;;13.65;8.02;;;;;;;17.27;97.45;100208.88;5261388;28;20288;-78
2021/08/19 02:45:14;;;;;;;13.18;8.65;;;;;;;17.39;97.70;100216.84;5242420;28;20028;-78
2021/08/19 02:47:45;;;;;;;10.93;7.70;;;;;;;17.27;97.89;100204.44;5241618;28;20035;-78
2021/08/19 02:50:17;;;;;;;13.90;9.38;;;;;;;17.12;99.32;100204.66;5240037;28;20024;-78
2021/08/19 02:52:47;;;;;;;13.20;9.68;;;;;;;17.23;98.27;100205.63;5242079;28;20032;-79
2021/08/19 02:55:17;;;;;;;14.18;9.70;;;;;;;17.08;99.37;100203.16;5242047;28;20055;-79
2021/08/19 02:57:48;;;;;;;14.48;9.85;;;;;;;17.08;98.90;100203.16;5242796;28;20056;-79
2021/08/19 03:00:18;;;;;;;14.75;9.30;;;;;;;17.06;99.97;100203.28;5241619;28;20584;-79
2021/08/19 03:02:48;;;;;;;14.10;10.30;;;;;;;17.02;99.92;100203.59;5261218;28;20062;-80
2021/08/19 03:05:19;;;;;;;13.85;10.27;;;;;;;17.02;100.00;100208.88;5259113;28;20029;-79
2021/08/19 03:07:49;;;;;;;13.98;10.30;;;;;;;16.99;100.00;100206.44;5238245;28;20039;-77
2021/08/19 03:10:19;;;;;;;13.82;10.90;;;;;;;16.90;100.00;100204.41;5243099;28;20089;-78
2021/08/19 03:12:49;;;;;;;15.18;10.68;;;;;;;17.01;100.00;100208.00;5262154;28;20020;-77
2021/08/19 03:15:20;;;;;;;14.07;11.23;;;;;;;17.07;99.13;100202.31;5258349;28;20024;-78
2021/08/19 03:17:50;;;;;;;15.63;10.88;;;;;;;17.04;100.00;100201.69;5255653;28;20024;-79
2021/08/19 03:20:21;;;;;;;13.38;10.88;;;;;;;17.00;100.00;100200.19;5239956;28;20238;-79
2021/08/19 03:22:52;;;;;;;16.00;11.57;;;;;;;16.91;100.00;100206.94;5240482;28;20587;-79
2021/08/19 03:25:22;;;;;;;15.02;11.43;;;;;;;16.84;100.00;100204.81;5243688;28;20056;-79
2021/08/19 03:28:00;;;;;;;13.93;11.30;;;;;;;16.87;100.00;100201.97;5239404;28;20078;-79
2021/08/19 03:30:31;;;;;;;17.02;12.80;;;;;;;16.85;100.00;100201.22;5239712;28;20032;-79
2021/08/19 03:33:05;;;;;;;13.30;11.73;;;;;;;16.85;100.00;100203.88;5242302;28;20038;-79
2021/08/19 03:35:36;;;;;;;13.50;10.75;;;;;;;16.89;100.00;100203.56;5258802;28;20051;-78
2021/08/19 03:38:06;;;;;;;16.40;11.30;;;;;;;16.89;100.00;100200.94;5241044;28;20016;-78
2021/08/19 03:40:36;;;;;;;17.02;12.10;;;;;;;17.14;99.61;100193.03;5242366;28;20485;-78
2021/08/19 03:43:07;;;;;;;14.60;11.05;;;;;;;17.01;100.00;100191.34;5259071;28;20020;-79
2021/08/19 03:45:37;;;;;;;12.88;10.30;;;;;;;17.04;100.00;100201.69;5242046;28;20024;-80
2021/08/19 03:48:07;;;;;;;14.43;11.23;;;;;;;16.90;100.00;100205.25;5257358;28;20055;-80
2021/08/19 03:50:38;;;;;;;14.25;11.05;;;;;;;16.90;100.00;100207.03;5238625;28;20386;-80
2021/08/19 03:53:08;;;;;;;16.27;11.07;;;;;;;17.00;99.69;100202.84;5242542;28;20051;-79
2021/08/19 03:55:38;;;;;;;13.50;10.88;;;;;;;16.99;99.93;100201.16;5240308;28;20103;-79
2021/08/19 03:58:08;;;;;;;13.57;10.63;;;;;;;16.93;100.00;100204.19;5241492;28;20034;-79
2021/08/19 04:00:39;;;;;;;13.20;10.03;;;;;;;17.00;100.00;100201.03;5258680;28;20028;-78
2021/08/19 04:03:09;;;;;;;14.05;10.48;;;;;;;16.91;100.00;100206.09;5259235;28;20876;-78
2021/08/19 04:05:40;;;;;;;12.45;9.95;;;;;;;16.96;99.88;100210.13;5257902;28;20055;-80
2021/08/19 04:08:10;;;;;;;12.27;10.00;;;;;;;17.00;99.90;100210.75;5258005;28;20103;-79
2021/08/19 04:10:41;;;;;;;13.60;10.00;;;;;;;17.08;99.01;100198.72;5259335;28;20760;-80
2021/08/19 04:13:12;;;;;;;12.83;9.57;;;;;;;17.04;99.13;100199.91;5240546;28;20028;-79
2021/08/19 04:15:42;;;;;;;12.52;9.30;;;;;;;17.01;98.90;100199.25;5258498;28;20327;-80
2021/08/19 04:18:14;;;;;;;11.93;8.90;;;;;;;16.94;99.42;100200.63;5256372;28;20028;-80
2021/08/19 04:20:44;;;;;;;12.07;9.43;;;;;;;17.02;98.91;100203.59;5238629;28;20263;-79
2021/08/19 04:23:15;;;;;;;10.77;8.93;;;;;;;16.97;99.27;100195.97;5258519;28;20277;-78
2021/08/19 04:25:45;;;;;;;13.52;8.98;;;;;;;17.04;98.81;100201.69;5258421;28;20032;-78
2021/08/19 04:28:15;;;;;;;12.15;8.65;;;;;;;17.07;98.92;100204.97;5240512;28;20026;-80
2021/08/19 04:30:45;;;;;;;12.52;8.77;;;;;;;16.99;98.45;100204.63;5240917;28;20032;-78
2021/08/19 04:33:16;;;;;;;10.02;7.50;;;;;;;16.99;98.96;100214.34;5258624;28;20102;-78
2021/08/19 04:35:46;;;;;;;11.10;8.48;;;;;;;17.07;98.72;100219.94;5258090;28;20115;-78
2021/08/19 04:38:16;;;;;;;11.05;8.00;;;;;;;17.00;98.73;100219.50;5240562;28;20179;-79
2021/08/19 04:40:47;;;;;;;11.98;8.38;;;;;;;16.97;98.57;100217.09;5258098;28;20024;-79
2021/08/19 04:43:17;;;;;;;11.20;7.70;;;;;;;17.15;97.66;100218.47;5258205;28;20061;-80
2021/08/19 04:45:48;;;;;;;10.68;7.78;;;;;;;17.20;97.74;100224.31;5258372;28;20490;-80
2021/08/19 04:48:18;;;;;;;11.90;7.82;;;;;;;17.17;97.06;100227.13;5256184;28;20025;-78
2021/08/19 04:50:49;;;;;;;8.93;7.07;;;;;;;17.07;98.62;100223.44;5257567;28;20063;-78
2021/08/19 04:53:19;;;;;;;12.27;7.55;;;;;;;17.09;97.79;100220.69;5257944;28;20211;-78
2021/08/19 04:55:49;;;;;;;11.38;7.03;;;;;;;17.14;97.19;100218.59;5258102;28;20432;-77
2021/08/19 04:58:19;;;;;;;10.60;7.50;;;;;;;17.16;96.83;100219.34;5257862;28;20024;-78
2021/08/19 05:00:50;;;;;;;10.10;6.93;;;;;;;17.31;96.47;100220.94;5259130;28;20024;-79
2021/08/19 05:03:20;;;;;;;11.90;7.70;;;;;;;17.14;96.50;100221.25;5239815;28;20029;-80
2021/08/19 05:05:51;;;;;;;11.00;7.40;;;;;;;17.23;96.12;100225.88;5257095;28;20477;-80
2021/08/19 05:08:21;;;;;;;10.38;7.28;;;;;;;17.26;96.49;100223.88;5241489;28;20539;-78
2021/08/19 05:10:51;;;;;;;9.57;6.68;;;;;;;17.21;97.11;100228.66;5238908;28;20028;-79
2021/08/19 05:13:21;;;;;;;9.73;6.47;;;;;;;17.36;95.99;100211.78;5258358;28;20119;-80
2021/08/19 05:15:52;;;;;;;8.98;6.95;;;;;;;17.42;95.45;100226.34;5239177;28;20036;-80
2021/08/19 05:18:22;;;;;;;10.68;6.80;;;;;;;17.26;96.27;100233.59;5237730;28;20044;-80
2021/08/19 05:20:52;;;;;;;9.15;6.97;;;;;;;17.31;96.54;100229.69;5259126;28;20099;-80
2021/08/19 05:23:23;;;;;;;13.00;7.40;;;;;;;17.22;96.63;100234.75;5257141;28;20029;-78
2021/08/19 05:25:53;;;;;;;12.67;7.77;;;;;;;17.41;96.46;100236.09;5259144;28;20077;-79
2021/08/19 05:28:23;;;;;;;14.35;6.63;;;;;;;17.28;96.97;100240.47;5238679;28;20285;-79
2021/08/19 05:30:54;;;;;;;9.00;6.50;;;;;;;17.35;97.15;100235.66;5240460;28;20028;-79
2021/08/19 05:33:24;;;;;;;9.73;6.13;;;;;;;17.28;97.70;100242.28;5257556;28;20024;-80
2021/08/19 05:35:55;;;;;;;10.95;6.97;;;;;;;17.42;96.95;100250.13;5257767;28;20194;-80
2021/08/19 05:38:25;;;;;;;12.13;7.15;;;;;;;17.32;97.80;100243.75;5260933;28;20183;-80
2021/08/19 05:40:55;;;;;;;9.70;6.38;;;;;;;17.38;97.34;100246.88;5238508;28;20017;-80
2021/08/19 05:43:25;;;;;;;9.93;6.50;;;;;;;17.55;97.05;100245.69;5236624;28;20044;-80
2021/08/19 05:45:56;;;;;;;11.32;6.80;;;;;;;17.40;96.94;100252.88;5248619;28;20035;-80
2021/08/19 05:48:26;;;;;;;12.20;7.05;;;;;;;17.50;96.61;100253.94;5233499;28;20020;-79
2021/08/19 05:50:56;;;;;;;11.23;7.00;;;;;;;17.46;97.14;100251.63;5249054;28;20067;-79
2021/08/19 05:53:27;;;;;;;10.10;7.27;;;;;;;17.64;96.43;100258.28;5251754;28;20024;-80
2021/08/19 05:55:57;;;;;;;13.85;7.20;;;;;;;17.59;96.91;100255.94;5251773;28;20366;-79
2021/08/19 05:58:27;;;;;;;9.93;7.20;;;;;;;17.58;96.74;100251.63;5258997;28;20031;-80
2021/08/19 06:00:58;;;;;;;12.82;8.43;;;;;;;17.55;97.66;100259.78;5226647;28;20024;-80
2021/08/19 06:03:28;;;;;;;11.40;7.63;;;;;;;17.62;96.84;100263.66;5255634;28;20035;-80
2021/08/19 06:05:59;;;;;;;13.68;7.70;;;;;;;17.79;96.52;100257.22;5249808;28;20021;-79
2021/08/19 06:08:29;;;;;;;13.57;7.53;;;;;;;17.79;97.02;100259.88;5232113;28;20032;-79
2021/08/19 06:10:59;;;;;;;14.07;8.75;;;;;;;17.91;96.40;100256.34;5232414;28;20064;-79
2021/08/19 06:13:30;;;;;;;11.82;8.00;;;;;;;17.94;96.44;100253.47;5235874;28;20037;-80
2021/08/19 06:16:00;;;;;;;13.68;8.48;;;;;;;17.87;96.51;100257.53;5243663;28;20020;-80
2021/08/19 06:18:30;;;;;;;11.73;8.48;;;;;;;17.86;96.54;100250.53;5238859;28;20503;-80
2021/08/19 06:21:00;;;;;;;17.42;8.80;;;;;;;17.93;96.91;100252.66;5256306;28;20035;-79
2021/08/19 06:23:31;;;;;;;14.20;8.90;;;;;;;18.13;95.46;100259.16;5259475;28;20074;-79
2021/08/19 06:26:01;;;;;;;11.13;8.00;;;;;;;18.19;96.05;100261.38;5237869;28;20126;-80
2021/08/19 06:28:31;;;;;;;12.25;9.05;;;;;;;18.27;94.40;100259.00;5233336;28;20021;-80
2021/08/19 06:31:02;;;;;;;11.73;8.60;;;;;;;18.48;93.88;100265.47;5231457;28;20024;-80
2021/08/19 06:33:32;;;;;;;14.23;8.90;;;;;;;18.57;92.63;100260.34;5250725;28;20025;-80
2021/08/19 06:36:03;;;;;;;13.00;8.57;;;;;;;18.76;92.67;100261.50;5248482;28;20043;-80
2021/08/19 06:38:33;;;;;;;12.55;9.00;;;;;;;18.94;91.12;100262.78;5250489;28;20052;-80
2021/08/19 06:41:03;;;;;;;11.07;8.20;;;;;;;18.98;91.91;100256.31;5230705;28;20389;-80
2021/08/19 06:43:34;;;;;;;15.18;9.07;;;;;;;18.89;92.23;100262.28;5234730;28;20020;-80
2021/08/19 06:46:04;;;;;;;13.95;8.68;;;;;;;18.89;92.36;100256.97;5238872;28;20024;-80
2021/08/19 06:48:34;;;;;;;12.18;8.77;;;;;;;19.25;90.09;100262.19;5257411;28;20394;-80
2021/08/19 06:51:04;;;;;;;11.15;8.35;;;;;;;19.40;89.73;100258.38;5239326;28;20035;-80
2021/08/19 06:53:35;;;;;;;12.63;8.25;;;;;;;20.45;85.41;100255.25;5242816;28;20054;-81
2021/08/19 06:56:06;;;;;;;14.18;8.63;;;;;;;20.01;86.56;100260.63;5239783;28;20028;-80
2021/08/19 06:58:36;;;;;;;14.25;8.48;;;;;;;19.66;88.50;100269.63;5260855;28;20597;-80
2021/08/19 07:01:06;;;;;;;11.35;8.30;;;;;;;19.34;89.54;100268.59;5255205;28;20012;-80
2021/08/19 07:03:37;;;;;;;10.45;7.35;;;;;;;19.43;89.80;100276.69;5254948;28;20060;-80
2021/08/19 07:06:12;;;;;;;11.00;7.68;;;;;;;19.25;90.72;100270.16;5236114;28;20103;-80
2021/08/19 07:08:43;;;;;;;11.70;7.43;;;;;;;19.15;89.97;100268.28;5256459;28;20029;-80
2021/08/19 07:11:14;;;;;;;10.35;7.57;;;;;;;18.87;91.53;100271.28;5240434;28;20024;-80
2021/08/19 07:13:44;;;;;;;12.05;7.18;;;;;;;18.96;91.32;100276.75;5240081;28;20539;-80
2021/08/19 07:16:14;;;;;;;12.07;7.45;;;;;;;18.87;90.91;100268.63;5258335;28;20039;-80
2021/08/19 07:18:44;;;;;;;10.73;7.38;;;;;;;18.72;91.70;100275.06;5258763;28;20037;-79
2021/08/19 07:21:15;;;;;;;13.00;7.93;;;;;;;18.78;91.80;100278.09;5240511;28;20493;-80
2021/08/19 07:23:45;;;;;;;12.98;7.72;;;;;;;18.65;91.80;100278.31;5259121;28;20044;-79
2021/08/19 07:26:17;;;;;;;12.15;8.02;;;;;;;18.62;92.87;100292.59;5241821;28;20445;-80
2021/08/19 07:28:47;;;;;;;13.20;7.45;;;;;;;18.66;92.71;100280.00;5242079;28;20051;-81
2021/08/19 07:31:18;;;;;;;10.48;7.18;;;;;;;18.63;93.55;100296.06;5241487;28;20518;-81
2021/08/19 07:33:48;;;;;;;12.77;7.43;;;;;;;18.57;92.78;100296.53;5240488;28;20122;-81
2021/08/19 07:36:20;;;;;;;15.30;7.53;;;;;;;18.50;92.58;100295.31;5239086;28;20226;-81
2021/08/19 07:38:51;;;;;;;12.50;7.38;;;;;;;18.48;93.17;100292.75;5240106;28;20281;-81
2021/08/19 07:41:21;;;;;;;11.30;7.50;;;;;;;18.53;93.29;100295.91;5241694;28;20024;-81
2021/08/19 07:43:51;;;;;;;12.55;7.75;;;;;;;18.51;93.28;100300.47;5257858;28;20032;-81
2021/08/19 07:46:22;;;;;;;15.13;7.38;;;;;;;18.68;93.36;100304.56;5260096;28;20024;-81
2021/08/19 07:48:55;;;;;;;12.10;7.07;;;;;;;18.73;92.81;100304.09;5251886;28;20024;-81
2021/08/19 07:51:25;;;;;;;13.73;8.00;;;;;;;18.57;93.17;100307.97;5239610;28;20514;-80
2021/08/19 07:53:56;;;;;;;10.05;7.50;;;;;;;18.85;92.80;100311.16;5237722;28;20036;-81
2021/08/19 07:56:27;;;;;;;12.30;7.97;;;;;;;18.91;91.49;100313.34;5240975;28;20040;-81
2021/08/19 07:58:58;;;;;;;12.80;7.65;;;;;;;18.93;91.08;100300.00;5262108;28;20044;-81
2021/08/19 08:01:29;;;;;;;10.93;7.18;;;;;;;18.99;91.54;100312.78;5239864;28;20020;-80
2021/08/19 08:03:59;;;;;;;12.98;7.70;;;;;;;18.87;91.78;100311.88;5240460;28;20032;-80
2021/08/19 08:06:29;;;;;;;13.10;7.90;;;;;;;18.73;92.30;100319.97;5239109;28;20031;-80
2021/08/19 08:09:00;;;;;;;11.32;6.97;;;;;;;18.80;92.76;100317.72;5250728;28;20069;-80
2021/08/19 08:11:30;;;;;;;10.73;7.20;;;;;;;18.81;92.21;100328.22;5236460;28;20289;-80
2021/08/19 08:14:02;;;;;;;12.00;7.22;;;;;;;18.86;92.60;100322.56;5260059;28;20093;-80
2021/08/19 08:16:33;;;;;;;10.65;7.18;;;;;;;18.93;92.47;100326.47;5236386;28;20451;-80
2021/08/19 08:19:03;;;;;;;11.00;6.72;;;;;;;18.93;91.79;100327.31;5232255;28;20111;-80
2021/08/19 08:21:36;;;;;;;12.55;7.32;;;;;;;18.91;92.40;100323.94;5258177;28;20301;-80
2021/08/19 08:24:06;;;;;;;11.57;7.30;;;;;;;18.78;92.73;100338.19;5237224;28;20089;-79
2021/08/19 08:26:38;;;;;;;12.07;7.55;;;;;;;18.80;92.03;100341.56;5238541;28;20037;-80
2021/08/19 08:29:08;;;;;;;13.23;7.47;;;;;;;18.64;92.98;100340.97;5237005;28;20021;-80
2021/08/19 08:31:39;;;;;;;12.00;7.40;;;;;;;18.69;92.10;100336.19;5237809;28;20094;-80
2021/08/19 08:34:09;;;;;;;12.05;7.03;;;;;;;18.70;93.13;100355.59;5235161;28;20064;-80
2021/08/19 08:36:40;;;;;;;12.13;7.07;;;;;;;18.80;93.09;100344.22;5255713;28;20068;-80
2021/08/19 08:39:11;;;;;;;10.85;7.40;;;;;;;18.69;92.92;100348.59;5236487;28;20643;-80
2021/08/19 08:41:42;;;;;;;14.45;8.15;;;;;;;18.77;92.24;100347.91;5239643;28;20122;-80
2021/08/19 08:44:14;;;;;;;10.23;7.13;;;;;;;18.73;93.24;100354.41;5237759;28;20039;-80
2021/08/19 08:46:45;;;;;;;12.30;7.65;;;;;;;18.71;92.67;100357.28;5250340;28;20288;-80
2021/08/19 08:49:15;;;;;;;13.98;7.50;;;;;;;18.75;92.39;100360.44;5235246;28;20024;-80
2021/08/19 08:51:51;;;;;;;10.68;7.05;;;;;;;18.84;92.12;100362.44;5255102;28;20276;-80
2021/08/19 08:54:23;;;;;;;12.05;6.32;;;;;;;18.83;91.49;100363.38;5254370;28;20024;-80
2021/08/19 08:56:53;;;;;;;13.55;6.50;;;;;;;18.98;91.46;100364.94;5238811;28;20032;-80
2021/08/19 08:59:24;;;;;;;10.73;6.65;;;;;;;18.87;91.25;100362.19;5236101;28;20050;-80
2021/08/19 09:01:55;;;;;;;10.80;6.88;;;;;;;18.86;91.90;100364.94;5257753;28;20043;-80
2021/08/19 09:04:25;;;;;;;10.98;6.40;;;;;;;19.02;92.07;100369.03;5238288;28;20027;-80
2021/08/19 09:07:02;;;;;;;11.25;7.20;;;;;;;18.97;92.13;100370.31;5249292;28;20044;-80
2021/08/19 09:09:34;;;;;;;11.80;7.25;;;;;;;18.81;93.95;100370.59;5230451;28;20017;-80
2021/08/19 09:12:06;;;;;;;11.25;6.97;;;;;;;18.85;93.18;100365.91;5257014;28;20043;-80
2021/08/19 09:14:40;;;;;;;11.93;7.22;;;;;;;19.05;92.67;100368.78;5236711;28;20024;-80
2021/08/19 09:17:10;;;;;;;13.45;7.18;;;;;;;18.83;93.54;100373.13;5235683;28;20375;-80
2021/08/19 09:19:40;;;;;;;16.85;7.50;;;;;;;18.81;93.73;100367.94;5233620;28;20047;-80
2021/08/19 09:22:13;;;;;;;14.35;7.85;;;;;;;18.49;94.85;100379.13;5237555;28;20533;-80
2021/08/19 09:24:43;;;;;;;12.30;8.20;;;;;;;18.70;94.69;100376.78;5253778;28;20020;-80
2021/08/19 09:27:16;;;;;;;10.48;7.53;;;;;;;18.55;94.27;100377.88;5235813;28;20116;-80
2021/08/19 09:29:48;;;;;;;13.50;7.63;;;;;;;18.60;94.99;100381.03;5236194;28;20028;-80
2021/08/19 09:32:19;;;;;;;14.07;8.48;;;;;;;18.50;96.30;100380.00;5256662;28;20064;-80
2021/08/19 09:34:51;;;;;;;14.23;7.70;;;;;;;18.81;94.62;100375.91;5254370;28;20529;-80
2021/08/19 09:37:23;;;;;;;12.50;7.70;;;;;;;18.76;94.95;100372.72;5236535;28;20040;-80
2021/08/19 09:39:58;;;;;;;15.30;8.77;;;;;;;18.95;93.27;100374.88;5254913;28;20019;-80
2021/08/19 09:42:36;;;;;;;;;;;;;;;19.02;94.48;100374.31;5252731;28;20040;-80
2021/08/19 09:45:43;;;;;;;12.25;7.05;;;;;;;19.15;93.75;100376.91;5249873;28;19923;-80
2021/08/19 09:48:14;;;;;;;13.32;7.68;;;;;;;19.28;92.24;100370.63;5248670;28;20039;-80
2021/08/19 09:50:44;;;;;;;16.67;7.90;;;;;;;19.18;92.43;100369.63;5235249;28;20394;-80
2021/08/19 09:53:23;;;;;;;10.57;7.28;;;;;;;19.33;93.75;100364.97;5237195;28;20036;-80
2021/08/19 09:55:54;;;;;;;10.95;7.10;;;;;;;19.41;92.52;100382.00;5238837;28;20024;-80
2021/08/19 09:58:32;;;;;;;11.75;8.23;;;;;;;19.64;88.26;100367.03;5253392;28;20043;-80
2021/08/19 10:01:03;;;;;;;13.05;8.35;;;;;;;19.72;87.76;100373.44;5231665;28;20387;-80
2021/08/19 10:03:33;;;;;;;11.02;7.68;;;;;;;19.67;88.35;100367.66;5254740;28;20044;-80
2021/08/19 10:06:04;;;;;;;13.38;8.25;;;;;;;19.75;88.27;100369.72;5253459;28;20025;-80
2021/08/19 10:08:34;;;;;;;11.80;7.53;;;;;;;19.72;89.42;100365.47;5255911;28;20054;-80
2021/08/19 10:11:06;;;;;;;11.85;8.20;;;;;;;19.95;88.53;100364.56;5235686;28;20031;-80
2021/08/19 10:14:05;;;;;;;11.77;8.18;;;;;;;19.73;89.14;100367.16;5239445;28;20045;-80
2021/08/19 10:20:12;;;;;;;13.95;7.90;;;;;;;20.25;86.07;100359.53;5249761;28;20120;-80
2021/08/19 10:22:43;;;;;;;11.65;7.90;;;;;;;20.64;86.09;100355.53;5252922;28;20131;-80
2021/08/19 10:25:17;;;;;;;11.10;7.90;;;;;;;20.86;84.17;100353.72;5254975;28;20534;-81
2021/08/19 10:28:07;;;;;;;12.57;7.50;;;;;;;20.47;85.43;100353.41;5254562;28;20031;-81
2021/08/19 10:30:47;;;;;;;10.63;7.70;;;;;;;20.71;85.37;100352.28;5231953;28;20039;-81
2021/08/19 10:33:36;;;;;;;9.95;7.95;;;;;;;20.56;84.63;100348.19;5254770;28;20845;-80
2021/08/19 10:36:09;;;;;;;11.98;6.63;;;;;;;20.54;85.27;100346.63;5231053;28;20021;-81
2021/08/19 10:38:42;;;;;;;11.57;7.65;;;;;;;20.31;85.56;100353.75;5236480;28;20182;-80
2021/08/19 10:41:30;;;;;;;14.07;7.13;;;;;;;20.37;86.27;100350.63;5251833;28;20020;-80
2021/08/19 10:44:04;;;;;;;9.00;6.88;;;;;;;20.33;88.07;100354.47;5252889;28;20036;-80
2021/08/19 10:46:46;;;;;;;10.73;7.65;;;;;;;20.25;86.87;100346.28;5259051;28;20369;-80
2021/08/19 10:49:29;;;;;;;10.65;6.95;;;;;;;20.14;88.22;100348.91;5250380;28;20569;-80
2021/08/19 10:52:08;;;;;;;10.23;6.43;;;;;;;19.99;88.42;100342.13;5260836;28;20028;-81
2021/08/19 10:54:40;;;;;;;10.57;6.47;;;;;;;19.85;88.78;100339.72;5237003;28;20627;-81
2021/08/19 10:57:32;;;;;;;13.23;7.28;;;;;;;20.09;86.66;100343.13;5241456;28;20173;-81
2021/08/19 11:00:12;;;;;;;10.77;7.25;;;;;;;20.00;87.04;100345.63;5233605;28;20032;-81
2021/08/19 11:02:51;;;;;;;9.60;7.40;;;;;;;20.10;86.67;100347.47;5250604;28;20061;-80
2021/08/19 11:05:27;;;;;;;10.77;7.07;;;;;;;20.40;86.39;100344.22;5236982;28;20036;-80
2021/08/19 11:08:00;;;;;;;10.65;7.10;;;;;;;20.53;86.06;100343.13;5237506;28;20016;-81
2021/08/19 11:10:32;;;;;;;12.75;8.13;;;;;;;20.41;85.57;100345.91;5233934;28;20118;-80
2021/08/19 11:13:05;;;;;;;12.75;7.93;;;;;;;20.82;84.68;100338.94;5241500;28;20445;-80
2021/08/19 11:15:45;;;;;;;11.02;8.10;;;;;;;20.74;83.70;100342.22;5257236;28;20041;-80
2021/08/19 11:18:29;;;;;;;11.13;7.65;;;;;;;20.75;84.78;100340.44;5252457;28;20031;-81
2021/08/19 11:21:01;;;;;;;11.75;8.18;;;;;;;20.90;85.05;100348.03;5257220;28;20036;-80
2021/08/19 11:23:36;;;;;;;12.18;8.00;;;;;;;20.61;85.44;100345.19;5256663;28;20375;-80
2021/08/19 11:26:17;;;;;;;15.00;9.45;;;;;;;20.48;86.35;100345.28;5240413;28;20573;-79
2021/08/19 11:28:49;;;;;;;13.07;8.20;;;;;;;20.36;86.78;100343.63;5240224;28;20398;-80
2021/08/19 11:31:22;;;;;;;12.73;8.82;;;;;;;20.08;87.22;100344.09;5256943;28;20036;-80
2021/08/19 11:34:00;;;;;;;14.05;9.48;;;;;;;20.19;87.70;100346.78;5260284;28;20021;-80
2021/08/19 11:36:32;;;;;;;9.98;8.48;;;;;;;20.19;87.51;100354.72;5230231;28;20035;-80
2021/08/19 11:39:06;;;;;;;12.23;8.27;;;;;;;20.16;88.75;100354.94;5233579;28;20103;-80
2021/08/19 11:41:36;;;;;;;10.38;8.05;;;;;;;20.18;88.83;100350.38;5237673;28;20047;-80